Pulleys Mill, Illinois
Current Conditions -  °F | °C
As of 4:15 AM on Thursday 29 Jan 2015 (Local Time) from KMWA Reporting Station
Clear Clear  
Wind Chill: 52°   Ceiling: Unl
Heat Index: 52°   Visibility: 10mi
Dew Point: 37°   Wind: 15mph
Humidity: 58%   Direction: 210°SSW
Pressure: 29.85"   Gusts: 22mph
Location:  37.565°N, 88.982°W
Report Text: KMWA 291015Z AUTO 21013G19KT 10SM CLR 11/03 A2985 RMK AO2
Loading
Personal Weather Stations






























Interactive Weather Map New forecast layout! Learn more

10-Day Weather Forecast

Advertisements
Track Severe Weather on mobile